createdAt,value
2017-11-20T00:00:27.024Z,3.23
2017-11-20T00:02:53.225Z,3.00
2017-11-20T00:05:20.193Z,3.87
2017-11-20T00:07:46.387Z,3.20
2017-11-20T00:10:13.388Z,3.30
2017-11-20T00:12:39.628Z,2.90
2017-11-20T00:15:05.870Z,3.20
2017-11-20T00:17:32.102Z,3.40
2017-11-20T00:19:58.372Z,3.00
2017-11-20T00:22:25.301Z,3.90
2017-11-20T00:24:52.240Z,3.80
2017-11-20T00:27:18.441Z,3.60
2017-11-20T00:29:44.626Z,3.23
2017-11-20T00:32:10.868Z,3.00
2017-11-20T00:34:37.046Z,3.20
2017-11-20T00:37:03.970Z,3.10
2017-11-20T00:39:30.225Z,3.67
2017-11-20T00:41:57.212Z,2.63
2017-11-20T00:44:23.392Z,2.97
2017-11-20T00:46:50.366Z,3.00
2017-11-20T00:49:16.621Z,3.80
2017-11-20T00:51:42.848Z,2.93
2017-11-20T00:54:09.112Z,2.90
2017-11-20T00:56:35.361Z,3.67
2017-11-20T00:59:02.343Z,2.83
2017-11-20T01:01:28.591Z,2.90
2017-11-20T01:03:54.852Z,3.60
2017-11-20T01:06:21.053Z,3.07
2017-11-20T01:08:47.277Z,3.30
2017-11-20T01:11:13.541Z,3.90
2017-11-20T01:13:40.513Z,3.53
2017-11-20T01:16:06.755Z,3.90
2017-11-20T01:18:32.991Z,3.83
2017-11-20T01:20:59.188Z,3.70
2017-11-20T01:23:26.150Z,3.93
2017-11-20T01:25:52.399Z,3.73
2017-11-20T01:28:18.660Z,3.53
2017-11-20T01:30:44.925Z,4.20
2017-11-20T01:33:11.179Z,3.60
2017-11-20T01:35:37.432Z,3.90
2017-11-20T01:38:03.703Z,3.87
2017-11-20T01:40:30.655Z,4.40
2017-11-20T01:42:57.589Z,3.60
2017-11-20T01:45:23.792Z,3.27
2017-11-20T01:47:50.013Z,3.30
2017-11-20T01:50:16.188Z,3.90
2017-11-20T01:52:43.195Z,3.80
2017-11-20T01:55:10.160Z,3.67
2017-11-20T01:57:37.140Z,3.67
2017-11-20T02:00:03.383Z,3.70
2017-11-20T02:02:29.652Z,3.77
2017-11-20T02:04:55.920Z,3.90
2017-11-20T02:07:22.139Z,3.20
2017-11-20T02:09:49.092Z,3.60
2017-11-20T02:12:15.347Z,3.60
2017-11-20T02:14:41.629Z,3.10
2017-11-20T02:17:08.644Z,3.50
2017-11-20T02:19:34.945Z,4.10
2017-11-20T02:22:01.181Z,4.43
2017-11-20T02:24:32.405Z,3.50
2017-11-20T02:26:58.687Z,3.87
2017-11-20T02:29:24.947Z,3.37
2017-11-20T02:31:51.948Z,3.40
2017-11-20T02:34:18.221Z,3.30
2017-11-20T02:36:45.176Z,3.80
2017-11-20T02:39:12.215Z,3.00
2017-11-20T02:41:39.211Z,3.63
2017-11-20T02:44:05.452Z,3.60
2017-11-20T02:46:31.700Z,3.70
2017-11-20T02:48:57.963Z,3.00
2017-11-20T02:51:24.237Z,3.67
2017-11-20T02:53:50.460Z,3.47
2017-11-20T02:56:16.712Z,3.53
2017-11-20T02:58:43.685Z,3.57
2017-11-20T03:01:09.939Z,3.43
2017-11-20T03:03:36.156Z,3.97
2017-11-20T03:06:02.396Z,3.50
2017-11-20T03:08:28.625Z,3.57
2017-11-20T03:10:54.877Z,3.50
2017-11-20T03:13:21.049Z,3.73
2017-11-20T03:15:48.024Z,3.70
2017-11-20T03:18:14.283Z,3.70
2017-11-20T03:20:40.508Z,3.87
2017-11-20T03:23:06.727Z,3.73
2017-11-20T03:25:32.987Z,4.90
2017-11-20T03:27:59.228Z,3.80
2017-11-20T03:30:26.199Z,4.83
2017-11-20T03:32:52.466Z,4.23
2017-11-20T03:35:18.694Z,4.47
2017-11-20T03:37:44.953Z,5.17
2017-11-20T03:40:11.224Z,4.30
2017-11-20T03:42:37.508Z,4.67
2017-11-20T03:45:03.750Z,4.33
2017-11-20T03:47:30.072Z,4.40
2017-11-20T03:49:57.056Z,4.37
2017-11-20T03:52:23.280Z,4.90
2017-11-20T03:54:49.547Z,4.70
2017-11-20T03:57:15.772Z,4.90
2017-11-20T03:59:41.975Z,4.50
2017-11-20T04:02:08.240Z,5.43
2017-11-20T04:04:34.463Z,4.50
2017-11-20T04:07:00.736Z,4.67
2017-11-20T04:09:27.743Z,5.03
2017-11-20T04:11:53.971Z,4.53
2017-11-20T04:14:20.215Z,4.47
2017-11-20T04:16:46.449Z,5.67
2017-11-20T04:19:12.674Z,4.53
2017-11-20T04:21:39.629Z,5.13
2017-11-20T04:24:06.644Z,4.70
2017-11-20T04:26:32.847Z,5.07
2017-11-20T04:28:59.051Z,4.70
2017-11-20T04:31:26.070Z,5.20
2017-11-20T04:33:53.044Z,3.23
2017-11-20T04:36:20.028Z,4.63
2017-11-20T04:38:46.289Z,4.00
2017-11-20T04:41:13.258Z,4.77
2017-11-20T04:43:40.238Z,5.60
2017-11-20T04:46:06.494Z,6.03
2017-11-20T04:48:32.704Z,5.50
2017-11-20T04:50:58.928Z,5.17
2017-11-20T04:53:25.205Z,5.30
2017-11-20T04:55:52.193Z,5.20
2017-11-20T04:58:18.373Z,4.80
2017-11-20T05:00:45.420Z,5.67
2017-11-20T05:03:12.387Z,5.53
2017-11-20T05:05:39.341Z,5.07
2017-11-20T05:08:05.545Z,5.53
2017-11-20T05:10:31.749Z,5.07
2017-11-20T05:12:57.969Z,7.00
2017-11-20T05:15:24.196Z,5.77
2017-11-20T05:17:50.440Z,5.83
2017-11-20T05:20:16.682Z,5.23
2017-11-20T05:22:42.909Z,5.83
2017-11-20T05:25:09.829Z,5.87
2017-11-20T05:27:36.040Z,6.47
2017-11-20T05:30:02.311Z,5.97
2017-11-20T05:32:28.524Z,4.73
2017-11-20T05:34:54.769Z,5.70
2017-11-20T05:37:20.980Z,5.40
2017-11-20T05:39:47.142Z,5.60
2017-11-20T05:42:14.129Z,6.30
2017-11-20T05:44:40.395Z,4.97
2017-11-20T05:47:07.366Z,4.77
2017-11-20T05:49:34.355Z,6.47
2017-11-20T05:52:00.568Z,5.80
2017-11-20T05:54:26.807Z,5.90
2017-11-20T05:56:53.007Z,6.03
2017-11-20T05:59:19.270Z,5.93
2017-11-20T06:01:45.505Z,6.37
2017-11-20T06:04:11.670Z,5.47
2017-11-20T06:06:37.881Z,6.97
2017-11-20T06:09:04.172Z,5.97
2017-11-20T06:11:30.413Z,6.30
2017-11-20T06:13:56.680Z,6.30
2017-11-20T06:16:22.871Z,5.90
2017-11-20T06:18:49.058Z,6.00
2017-11-20T06:21:16.050Z,4.93
2017-11-20T06:23:42.219Z,5.53
2017-11-20T06:26:09.185Z,6.30
2017-11-20T06:28:35.443Z,8.17
2017-11-20T06:31:01.650Z,6.60
2017-11-20T06:33:27.809Z,6.10
2017-11-20T06:35:54.064Z,7.27
2017-11-20T06:38:20.276Z,7.03
2017-11-20T06:40:46.564Z,6.80
2017-11-20T06:43:12.768Z,5.80
2017-11-20T06:45:39.784Z,7.17
2017-11-20T06:48:07.208Z,5.23
2017-11-20T06:50:33.869Z,5.03
2017-11-20T06:53:00.393Z,5.60
2017-11-20T06:55:26.928Z,5.40
2017-11-20T06:57:53.220Z,6.13
2017-11-20T07:00:19.478Z,7.47
2017-11-20T07:02:45.785Z,5.80
2017-11-20T07:05:12.030Z,5.80
2017-11-20T07:07:38.785Z,6.70
2017-11-20T07:10:05.008Z,5.10
2017-11-20T07:12:31.307Z,6.43
2017-11-20T07:14:57.546Z,5.93
2017-11-20T07:17:23.743Z,5.90
2017-11-20T07:19:50.705Z,5.17
2017-11-20T07:22:17.639Z,6.17
2017-11-20T07:24:44.764Z,6.27
2017-11-20T07:27:24.060Z,6.20
2017-11-20T07:30:02.408Z,4.67
2017-11-20T07:32:28.607Z,5.50
2017-11-20T07:34:55.715Z,5.50
2017-11-20T07:37:34.983Z,5.00
2017-11-20T07:40:13.432Z,5.50
2017-11-20T07:42:39.693Z,6.50
2017-11-20T07:45:06.637Z,6.00
2017-11-20T07:47:33.598Z,4.90
2017-11-20T07:50:00.537Z,5.20
2017-11-20T07:52:26.756Z,5.63
2017-11-20T07:54:53.743Z,5.23
2017-11-20T07:57:19.988Z,5.63
2017-11-20T07:59:46.240Z,5.27
2017-11-20T08:02:13.208Z,5.23
2017-11-20T08:04:40.158Z,5.93
2017-11-20T08:07:07.124Z,5.43
2017-11-20T08:09:33.288Z,5.40
2017-11-20T08:11:59.499Z,6.10
2017-11-20T08:14:25.694Z,5.73
2017-11-20T08:16:52.074Z,5.33
2017-11-20T08:19:18.299Z,4.87
2017-11-20T08:21:44.505Z,5.20
2017-11-20T08:24:10.769Z,6.23
2017-11-20T08:26:37.788Z,5.10
2017-11-20T08:29:03.986Z,6.33
2017-11-20T08:31:30.225Z,5.03
2017-11-20T08:33:56.448Z,5.43
2017-11-20T08:36:22.699Z,4.90
2017-11-20T08:38:48.978Z,5.40
2017-11-20T08:41:15.921Z,6.50
2017-11-20T08:43:42.154Z,5.63
2017-11-20T08:46:09.256Z,5.50
2017-11-20T08:48:35.537Z,6.17
2017-11-20T08:51:02.493Z,6.30
2017-11-20T08:53:28.704Z,5.40
2017-11-20T08:55:54.937Z,5.50
2017-11-20T08:58:21.869Z,6.47
2017-11-20T09:00:48.089Z,5.90
2017-11-20T09:03:15.032Z,5.00
2017-11-20T09:05:42.101Z,5.07
2017-11-20T09:08:09.058Z,4.93
2017-11-20T09:10:36.012Z,5.20
2017-11-20T09:13:02.261Z,8.03
2017-11-20T09:15:28.480Z,5.50
2017-11-20T09:17:54.780Z,5.37
2017-11-20T09:20:21.716Z,5.40
2017-11-20T09:22:47.934Z,6.00
2017-11-20T09:25:14.964Z,5.20
2017-11-20T09:27:41.271Z,5.90
2017-11-20T09:30:07.538Z,4.97
2017-11-20T09:32:33.792Z,5.13
2017-11-20T09:35:00.749Z,4.50
2017-11-20T09:37:27.750Z,4.90
2017-11-20T09:39:54.018Z,5.10
2017-11-20T09:42:20.967Z,5.07
2017-11-20T09:44:54.860Z,4.80
2017-11-20T09:47:21.880Z,5.00
2017-11-20T09:49:48.864Z,6.00
2017-11-20T09:52:15.936Z,5.20
2017-11-20T09:54:42.168Z,4.93
2017-11-20T09:57:08.392Z,6.13
2017-11-20T09:59:34.688Z,4.87
2017-11-20T10:02:01.641Z,4.23
2017-11-20T10:04:28.628Z,5.43
2017-11-20T10:06:54.909Z,5.13
2017-11-20T10:09:21.929Z,5.30
2017-11-20T10:11:48.959Z,5.30
2017-11-20T10:14:15.312Z,5.37
2017-11-20T10:16:42.285Z,5.30
2017-11-20T10:19:09.225Z,5.17
2017-11-20T10:21:36.224Z,6.27
2017-11-20T10:24:02.460Z,4.97
2017-11-20T10:26:28.714Z,5.13
2017-11-20T10:28:55.755Z,4.63
2017-11-20T10:31:22.740Z,4.53
2017-11-20T10:33:48.992Z,4.97
2017-11-20T10:36:15.221Z,4.70
2017-11-20T10:38:41.505Z,6.47
2017-11-20T10:41:07.709Z,5.80
2017-11-20T10:43:33.912Z,5.20
2017-11-20T10:46:00.149Z,5.90
2017-11-20T10:48:26.394Z,4.80
2017-11-20T10:50:52.586Z,6.80
2017-11-20T10:53:18.841Z,5.17
2017-11-20T10:55:45.092Z,6.53
2017-11-20T10:58:11.328Z,7.20
2017-11-20T11:00:38.316Z,5.80
2017-11-20T11:03:04.566Z,6.60
2017-11-20T11:05:30.809Z,7.03
2017-11-20T11:07:57.058Z,6.30
2017-11-20T11:10:24.060Z,6.30
2017-11-20T11:12:50.320Z,6.50
2017-11-20T11:15:17.316Z,5.97
2017-11-20T11:17:43.515Z,6.57
2017-11-20T11:20:10.532Z,6.33
2017-11-20T11:22:36.768Z,7.40
2017-11-20T11:25:03.768Z,6.53
2017-11-20T11:27:30.084Z,6.90
2017-11-20T11:29:56.287Z,6.10
2017-11-20T11:32:23.310Z,6.20
2017-11-20T11:34:49.554Z,5.50
2017-11-20T11:37:15.761Z,5.93
2017-11-20T11:39:42.048Z,6.20
2017-11-20T11:42:08.277Z,6.27
2017-11-20T11:44:35.231Z,6.70
2017-11-20T11:47:01.457Z,4.77
2017-11-20T11:49:27.769Z,5.17
2017-11-20T11:51:54.840Z,4.53
2017-11-20T11:54:21.078Z,5.70
2017-11-20T11:56:47.367Z,5.47
2017-11-20T11:59:13.640Z,6.10
2017-11-20T12:01:39.845Z,4.90
2017-11-20T12:04:06.871Z,6.20
2017-11-20T12:06:33.804Z,4.70
2017-11-20T12:09:00.053Z,5.40
2017-11-20T12:11:27.075Z,5.33
2017-11-20T12:13:53.328Z,4.90
2017-11-20T12:16:20.297Z,4.37
2017-11-20T12:18:46.570Z,5.10
2017-11-20T12:21:12.864Z,3.77
2017-11-20T12:23:39.063Z,4.30
2017-11-20T12:26:06.069Z,2.90
2017-11-20T12:28:32.288Z,3.80
2017-11-20T12:30:58.555Z,3.20
2017-11-20T12:33:25.605Z,2.70
2017-11-20T12:35:52.582Z,2.53
2017-11-20T12:38:18.844Z,2.50
2017-11-20T12:40:45.125Z,2.53
2017-11-20T12:43:12.139Z,2.57
2017-11-20T12:45:38.420Z,2.57
2017-11-20T12:48:04.729Z,2.30
2017-11-20T12:50:31.745Z,3.13
2017-11-20T12:52:57.956Z,2.57
2017-11-20T12:55:24.253Z,2.70
2017-11-20T12:57:50.551Z,2.67
2017-11-20T13:00:17.511Z,2.80
2017-11-20T13:02:44.550Z,2.10
2017-11-20T13:05:18.796Z,2.07
2017-11-20T13:07:45.028Z,2.13
2017-11-20T13:10:11.220Z,2.70
2017-11-20T13:12:38.249Z,3.00
2017-11-20T13:15:04.519Z,2.97
2017-11-20T13:17:30.733Z,3.50
2017-11-20T13:19:57.777Z,4.50
2017-11-20T13:22:24.815Z,4.43
2017-11-20T13:24:51.827Z,3.37
2017-11-20T13:27:18.040Z,4.07
2017-11-20T13:29:44.370Z,4.07
2017-11-20T13:32:10.680Z,2.63
2017-11-20T13:34:36.966Z,4.70
2017-11-20T13:37:04.029Z,4.30
2017-11-20T13:39:31.210Z,5.30
2017-11-20T13:41:57.512Z,5.03
2017-11-20T13:44:24.585Z,5.43
2017-11-20T13:46:50.777Z,5.20
2017-11-20T13:49:17.769Z,5.20
2017-11-20T13:51:43.964Z,5.00
2017-11-20T13:54:10.915Z,4.73
2017-11-20T13:56:38.060Z,5.50
2017-11-20T13:59:05.166Z,5.80
2017-11-20T14:01:31.428Z,4.87
2017-11-20T14:03:58.460Z,5.10
2017-11-20T14:06:24.750Z,5.90
2017-11-20T14:08:52.481Z,5.47
2017-11-20T14:11:19.449Z,5.03
2017-11-20T14:13:45.784Z,6.00
2017-11-20T14:16:12.071Z,5.70
2017-11-20T14:18:38.368Z,6.07
2017-11-20T14:21:04.706Z,5.00
2017-11-20T14:23:30.936Z,5.77
2017-11-20T14:25:57.172Z,5.63
2017-11-20T14:28:23.420Z,6.27
2017-11-20T14:30:50.402Z,10.10
2017-11-20T14:33:16.648Z,5.57
2017-11-20T14:35:42.890Z,6.23
2017-11-20T14:38:09.126Z,7.80
2017-11-20T14:40:35.445Z,7.50
2017-11-20T14:43:01.788Z,5.60
2017-11-20T14:45:28.805Z,6.60
2017-11-20T14:48:02.069Z,7.93
2017-11-20T14:50:29.089Z,5.90
2017-11-20T14:52:56.121Z,5.80
2017-11-20T14:55:22.358Z,6.03
2017-11-20T14:57:48.658Z,5.80
2017-11-20T15:00:14.967Z,5.30
2017-11-20T15:02:42.968Z,4.30
2017-11-20T15:05:09.201Z,5.30
2017-11-20T15:07:35.478Z,4.90
2017-11-20T15:10:02.512Z,4.70
2017-11-20T15:12:28.804Z,4.50
2017-11-20T15:14:55.095Z,4.90
2017-11-20T15:17:22.029Z,4.03
2017-11-20T15:19:49.100Z,5.60
2017-11-20T15:22:15.438Z,4.93
2017-11-20T15:24:41.740Z,4.93
2017-11-20T15:27:08.785Z,4.80
2017-11-20T15:29:35.810Z,3.80
2017-11-20T15:32:02.813Z,4.80
2017-11-20T15:34:29.040Z,5.40
2017-11-20T15:36:55.285Z,4.73
2017-11-20T15:39:21.520Z,4.70
2017-11-20T15:41:47.725Z,5.60
2017-11-20T15:44:13.996Z,4.70
2017-11-20T15:46:40.977Z,5.77
2017-11-20T15:49:07.934Z,5.60
2017-11-20T15:51:34.170Z,4.97
2017-11-20T15:54:00.453Z,5.67
2017-11-20T15:56:27.418Z,6.30
2017-11-20T15:58:54.464Z,6.10
2017-11-20T16:01:21.512Z,6.45
2017-11-20T16:03:48.552Z,6.13
2017-11-20T16:06:15.571Z,6.63
2017-11-20T16:08:41.772Z,6.90
2017-11-20T16:11:07.982Z,7.10
2017-11-20T16:13:34.217Z,16.40
2017-11-20T16:16:00.485Z,8.17
2017-11-20T16:18:26.747Z,7.33
2017-11-20T16:20:53.743Z,7.53
2017-11-20T16:23:19.983Z,5.77
2017-11-20T16:25:46.233Z,5.97
2017-11-20T16:28:12.482Z,7.90
2017-11-20T16:30:39.452Z,5.30
2017-11-20T16:33:05.695Z,6.60
2017-11-20T16:35:31.968Z,7.50
2017-11-20T16:37:58.244Z,9.63
2017-11-20T16:40:24.524Z,8.70
2017-11-20T16:42:50.747Z,6.70
2017-11-20T16:45:17.034Z,7.43
2017-11-20T16:47:43.292Z,9.20
2017-11-20T16:50:09.631Z,8.87
2017-11-20T16:52:35.907Z,9.40
2017-11-20T16:55:02.196Z,17.40
2017-11-20T16:57:36.598Z,9.60
2017-11-20T17:00:15.215Z,7.13
2017-11-20T17:02:53.719Z,7.37
2017-11-20T17:05:19.936Z,6.20
2017-11-20T17:07:46.159Z,7.03
2017-11-20T17:10:12.471Z,7.13
2017-11-20T17:12:39.472Z,7.07
2017-11-20T17:15:05.705Z,6.97
2017-11-20T17:17:31.886Z,6.67
2017-11-20T17:19:58.131Z,6.37
2017-11-20T17:22:24.395Z,6.93
2017-11-20T17:24:50.670Z,7.53
2017-11-20T17:27:16.849Z,6.80
2017-11-20T17:29:43.121Z,7.30
2017-11-20T17:32:09.372Z,6.80
2017-11-20T17:34:35.630Z,6.63
2017-11-20T17:37:02.710Z,5.50
2017-11-20T17:39:29.708Z,6.40
2017-11-20T17:41:56.028Z,7.37
2017-11-20T17:44:22.262Z,7.20
2017-11-20T17:46:48.480Z,7.57
2017-11-20T17:49:14.681Z,8.50
2017-11-20T17:51:41.648Z,7.87
2017-11-20T17:54:07.904Z,6.07
2017-11-20T17:56:34.181Z,9.30
2017-11-20T17:59:01.146Z,9.50
2017-11-20T18:01:27.309Z,9.00
2017-11-20T18:03:53.584Z,8.27
2017-11-20T18:06:20.897Z,10.50
2017-11-20T18:08:47.174Z,9.63
2017-11-20T18:11:13.401Z,7.60
2017-11-20T18:13:40.421Z,8.57
2017-11-20T18:16:06.702Z,8.70
2017-11-20T18:18:33.011Z,7.83
2017-11-20T18:20:59.311Z,7.33
2017-11-20T18:23:26.346Z,11.17
2017-11-20T18:25:52.640Z,9.93
2017-11-20T18:28:18.901Z,22.67
2017-11-20T18:30:45.166Z,9.33
2017-11-20T18:33:12.207Z,10.63
2017-11-20T18:35:39.210Z,15.73
2017-11-20T18:38:05.486Z,11.13
2017-11-20T18:40:31.746Z,10.93
2017-11-20T18:42:57.942Z,16.93
2017-11-20T18:45:24.184Z,12.00
2017-11-20T18:47:51.185Z,10.17
2017-11-20T18:50:17.472Z,10.20
2017-11-20T18:52:43.690Z,22.40
2017-11-20T18:55:09.895Z,23.40
2017-11-20T18:57:36.893Z,11.50
2017-11-20T19:00:15.347Z,9.60
2017-11-20T19:02:48.434Z,10.77
2017-11-20T19:05:27.631Z,13.43
2017-11-20T19:08:06.118Z,10.70
2017-11-20T19:10:33.131Z,12.13
2017-11-20T19:12:59.390Z,7.97
2017-11-20T19:15:25.741Z,10.10
2017-11-20T19:17:52.057Z,12.87
2017-11-20T19:20:19.027Z,11.40
2017-11-20T19:22:45.275Z,10.73
2017-11-20T19:25:11.575Z,10.07
2017-11-20T19:27:37.804Z,12.30
2017-11-20T19:30:04.038Z,12.80
2017-11-20T19:32:30.308Z,10.33
2017-11-20T19:34:57.312Z,8.93
2017-11-20T19:37:23.557Z,10.47
2017-11-20T19:39:49.741Z,10.83
2017-11-20T19:42:16.736Z,11.33
2017-11-20T19:44:42.947Z,9.13
2017-11-20T19:47:09.124Z,9.10
2017-11-20T19:49:35.362Z,9.90
2017-11-20T19:52:02.294Z,10.57
2017-11-20T19:54:28.513Z,10.50
2017-11-20T19:56:54.701Z,9.73
2017-11-20T19:59:20.849Z,10.27
2017-11-20T20:01:47.104Z,8.00
2017-11-20T20:04:14.058Z,9.23
2017-11-20T20:06:40.303Z,8.53
2017-11-20T20:09:07.330Z,9.80
2017-11-20T20:11:34.327Z,8.97
2017-11-20T20:14:12.999Z,7.97
2017-11-20T20:16:43.753Z,9.87
2017-11-20T20:19:10.693Z,9.77
2017-11-20T20:21:37.679Z,8.73
2017-11-20T20:24:03.872Z,8.33
2017-11-20T20:26:30.878Z,9.20
2017-11-20T20:28:57.113Z,9.57
2017-11-20T20:31:23.399Z,8.30
2017-11-20T20:33:49.615Z,9.80
2017-11-20T20:36:15.893Z,9.93
2017-11-20T20:38:42.097Z,10.70
2017-11-20T20:41:08.331Z,10.10
2017-11-20T20:43:34.589Z,10.40
2017-11-20T20:46:00.805Z,10.43
2017-11-20T20:48:27.007Z,9.90
2017-11-20T20:50:53.222Z,10.47
2017-11-20T20:53:19.463Z,9.70
2017-11-20T20:55:45.639Z,11.83
2017-11-20T20:58:11.929Z,11.60
2017-11-20T21:00:38.188Z,12.43
2017-11-20T21:03:05.133Z,13.40
2017-11-20T21:05:32.222Z,11.90
2017-11-20T21:07:58.492Z,10.10
2017-11-20T21:10:30.805Z,10.17
2017-11-20T21:12:57.806Z,11.93
2017-11-20T21:15:24.060Z,11.40
2017-11-20T21:17:50.314Z,12.33
2017-11-20T21:20:16.596Z,11.30
2017-11-20T21:22:42.861Z,11.70
2017-11-20T21:25:09.842Z,12.93
2017-11-20T21:27:36.081Z,13.70
2017-11-20T21:30:02.309Z,16.83
2017-11-20T21:32:33.446Z,16.70
2017-11-20T21:34:59.803Z,15.90
2017-11-20T21:37:26.115Z,17.20
2017-11-20T21:39:52.332Z,15.87
2017-11-20T21:42:18.655Z,13.23
2017-11-20T21:44:44.964Z,10.90
2017-11-20T21:47:11.981Z,11.40
2017-11-20T21:49:39.056Z,11.37
2017-11-20T21:52:05.982Z,10.37
2017-11-20T21:54:32.996Z,10.73
2017-11-20T21:56:59.265Z,10.03
2017-11-20T21:59:26.216Z,11.43
2017-11-20T22:01:52.484Z,11.30
2017-11-20T22:04:18.777Z,13.73
2017-11-20T22:06:45.719Z,14.20
2017-11-20T22:09:11.922Z,14.67
2017-11-20T22:11:38.138Z,13.80
2017-11-20T22:14:04.372Z,12.10
2017-11-20T22:16:30.593Z,11.60
2017-11-20T22:18:56.848Z,10.97
2017-11-20T22:21:23.873Z,10.23
2017-11-20T22:23:50.094Z,10.30
2017-11-20T22:26:16.333Z,9.00
2017-11-20T22:28:42.565Z,9.60
2017-11-20T22:31:08.783Z,9.80
2017-11-20T22:33:35.044Z,9.87
2017-11-20T22:36:01.274Z,10.13
2017-11-20T22:38:27.510Z,9.40
2017-11-20T22:40:53.848Z,9.77
2017-11-20T22:43:20.833Z,9.80
2017-11-20T22:45:47.065Z,8.80
2017-11-20T22:48:13.303Z,10.20
2017-11-20T22:50:39.582Z,9.67
2017-11-20T22:53:06.576Z,8.20
2017-11-20T22:55:32.799Z,9.93
2017-11-20T22:57:59.077Z,8.87
2017-11-20T23:00:26.097Z,9.47
2017-11-20T23:02:52.332Z,9.37
2017-11-20T23:05:18.558Z,8.70
2017-11-20T23:07:44.775Z,8.43
2017-11-20T23:10:11.071Z,9.47
2017-11-20T23:12:37.366Z,9.50
2017-11-20T23:15:04.371Z,8.90
2017-11-20T23:17:30.657Z,8.87
2017-11-20T23:19:56.920Z,8.23
2017-11-20T23:22:23.214Z,9.10
2017-11-20T23:24:50.217Z,8.93
2017-11-20T23:27:16.438Z,9.23
2017-11-20T23:29:42.649Z,8.80
2017-11-20T23:32:08.871Z,8.63
2017-11-20T23:34:35.113Z,9.27
2017-11-20T23:37:01.361Z,9.37
2017-11-20T23:39:27.623Z,9.00
2017-11-20T23:41:54.558Z,8.83
2017-11-20T23:44:20.777Z,9.60
2017-11-20T23:46:47.783Z,9.23
2017-11-20T23:49:14.001Z,9.37
2017-11-20T23:51:40.268Z,7.83
2017-11-20T23:54:06.544Z,9.27
2017-11-20T23:56:32.740Z,8.20
2017-11-20T23:58:59.664Z,9.10
